Time;durP1;ratioP1;P1;durP2;ratioP2;P2;SDS_P1;SDS_P2;PMS_P1;PMS_P2;Temp;Humidity;BMP_temperature;BMP_pressure;BME280_temperature;BME280_humidity;BME280_pressure;Samples;Min_cycle;Max_cycle;Signal;HPM_P1;HPM_P2
2022/08/26 00:00:59;;;;;;;10.30;7.07;;;17.20;99.90;;;;;;4988364;28;20101;-65
2022/08/26 00:03:27;;;;;;;8.65;7.45;;;17.10;99.90;;;;;;4987731;28;20085;-62
2022/08/26 00:05:53;;;;;;;12.50;7.90;;;17.10;99.90;;;;;;4988465;28;20082;-61
2022/08/26 00:08:20;;;;;;;8.10;7.07;;;17.00;99.90;;;;;;4987553;28;20054;-62
2022/08/26 00:10:47;;;;;;;9.30;6.38;;;17.00;99.90;;;;;;4984048;28;20050;-64
2022/08/26 00:13:14;;;;;;;9.10;7.13;;;17.00;99.90;;;;;;4978290;28;20043;-64
2022/08/26 00:15:45;;;;;;;13.10;7.78;;;16.90;99.90;;;;;;4975859;28;20054;-64
2022/08/26 00:18:13;;;;;;;10.82;7.18;;;16.90;99.90;;;;;;4989407;28;20403;-65
2022/08/26 00:20:48;;;;;;;10.70;7.80;;;16.90;99.90;;;;;;4974999;28;20050;-64
2022/08/26 00:23:15;;;;;;;9.35;6.82;;;16.80;99.90;;;;;;4990031;28;20046;-64
2022/08/26 00:25:41;;;;;;;13.85;7.40;;;16.70;99.90;;;;;;4973292;28;20603;-64
2022/08/26 00:28:09;;;;;;;9.70;7.57;;;16.70;99.90;;;;;;4990969;28;20174;-64
2022/08/26 00:30:36;;;;;;;9.48;7.25;;;16.70;99.90;;;;;;4990978;28;20046;-65
2022/08/26 00:33:04;;;;;;;10.88;7.53;;;16.70;99.90;;;;;;4990540;28;20084;-64
2022/08/26 00:35:33;;;;;;;11.85;7.20;;;16.70;99.90;;;;;;4990748;28;20042;-65
2022/08/26 00:38:01;;;;;;;12.38;8.57;;;16.70;99.90;;;;;;4990476;28;20052;-64
2022/08/26 00:40:39;;;;;;;10.93;7.70;;;16.70;99.90;;;;;;4974036;28;20045;-64
2022/08/26 00:43:06;;;;;;;10.07;7.97;;;16.60;99.90;;;;;;4972872;28;20074;-63
2022/08/26 00:45:44;;;;;;;9.85;7.25;;;16.60;99.90;;;;;;4990337;28;20079;-63
2022/08/26 00:48:11;;;;;;;11.65;7.53;;;16.60;99.90;;;;;;4953083;28;20049;-63
2022/08/26 00:50:40;;;;;;;10.48;7.88;;;16.60;99.90;;;;;;4974978;28;20133;-64
2022/08/26 00:53:20;;;;;;;11.63;7.97;;;16.60;99.90;;;;;;4974429;28;20066;-63
2022/08/26 00:56:01;;;;;;;11.20;7.80;;;16.50;99.90;;;;;;4977290;28;20081;-64
2022/08/26 00:58:28;;;;;;;13.40;8.55;;;16.60;99.90;;;;;;4973739;28;20062;-64
2022/08/26 01:00:55;;;;;;;14.20;7.43;;;16.60;99.90;;;;;;4973002;28;20109;-63
2022/08/26 01:03:24;;;;;;;11.55;8.73;;;16.60;99.90;;;;;;4972477;28;20529;-64
2022/08/26 01:05:54;;;;;;;12.70;9.43;;;16.60;99.90;;;;;;4973101;28;20053;-65
2022/08/26 01:08:22;;;;;;;11.93;8.77;;;16.70;99.90;;;;;;4963673;28;20165;-64
2022/08/26 01:11:08;;;;;;;16.45;9.52;;;16.70;99.90;;;;;;4680741;22;23991;-61
2022/08/26 01:13:35;;;;;;;16.85;9.43;;;16.70;99.90;;;;;;5039940;23;20056;-63
2022/08/26 01:16:04;;;;;;;13.60;10.00;;;16.60;99.90;;;;;;5014665;28;20045;-63
2022/08/26 01:18:32;;;;;;;13.27;9.77;;;16.60;99.90;;;;;;4992966;28;20050;-63
2022/08/26 01:21:28;;;;;;;14.70;9.30;;;16.60;99.90;;;;;;5014305;28;20080;-63
2022/08/26 01:23:55;;;;;;;14.48;9.52;;;16.50;99.90;;;;;;4958015;28;20393;-63
2022/08/26 01:26:32;;;;;;;19.63;9.27;;;16.30;99.90;;;;;;4996708;28;20057;-64
2022/08/26 01:29:00;;;;;;;13.18;10.45;;;16.30;99.90;;;;;;4980727;28;20077;-63
2022/08/26 01:31:28;;;;;;;12.52;9.68;;;16.20;99.90;;;;;;4990495;28;20049;-63
2022/08/26 01:34:04;;;;;;;15.23;9.15;;;16.20;99.90;;;;;;4980177;28;20472;-63
2022/08/26 01:36:30;;;;;;;13.38;9.68;;;16.20;99.90;;;;;;4996997;28;20058;-63
2022/08/26 01:38:57;;;;;;;14.70;10.93;;;16.10;99.90;;;;;;4980397;28;20073;-64
2022/08/26 01:41:24;;;;;;;14.50;10.73;;;16.10;99.90;;;;;;5014236;28;20091;-63
2022/08/26 01:43:55;;;;;;;17.45;9.68;;;16.20;99.90;;;;;;5013238;28;20056;-63
2022/08/26 01:46:23;;;;;;;13.63;10.45;;;16.20;99.90;;;;;;4996570;28;20307;-63
2022/08/26 01:48:50;;;;;;;14.20;9.70;;;16.20;99.90;;;;;;4980021;28;20564;-63
2022/08/26 01:51:21;;;;;;;12.45;9.93;;;16.20;99.90;;;;;;4991841;28;20054;-63
2022/08/26 01:53:48;;;;;;;14.35;10.07;;;16.20;99.90;;;;;;5004431;28;20050;-63
2022/08/26 01:56:15;;;;;;;12.55;9.90;;;16.10;99.90;;;;;;4298416;28;10000818;-64
2022/08/26 01:58:45;;;;;;;14.38;9.73;;;16.10;99.90;;;;;;5011324;28;20075;-64
2022/08/26 02:01:12;;;;;;;11.38;9.65;;;16.10;99.90;;;;;;4979928;28;20077;-64
2022/08/26 02:03:50;;;;;;;11.43;9.40;;;16.10;99.90;;;;;;4980156;28;20042;-64
2022/08/26 02:06:18;;;;;;;15.50;10.30;;;16.10;99.90;;;;;;4980804;28;20104;-63
2022/08/26 02:08:52;;;;;;;11.13;9.70;;;16.00;99.90;;;;;;5013462;28;20053;-63
2022/08/26 02:11:19;;;;;;;11.73;8.20;;;16.00;99.90;;;;;;4979442;28;20074;-63
2022/08/26 02:13:52;;;;;;;14.68;9.05;;;16.00;99.90;;;;;;4995571;28;20089;-63
2022/08/26 02:16:21;;;;;;;14.18;9.68;;;15.90;99.90;;;;;;4980738;28;20120;-63
2022/08/26 02:18:49;;;;;;;15.27;10.82;;;15.90;99.90;;;;;;5013326;28;20056;-63
2022/08/26 02:21:18;;;;;;;10.82;9.30;;;15.90;99.90;;;;;;4996149;28;20054;-63
2022/08/26 02:23:46;;;;;;;11.43;9.77;;;15.90;99.90;;;;;;5012673;28;20041;-63
2022/08/26 02:26:16;;;;;;;11.85;9.70;;;15.90;99.90;;;;;;4995201;28;20555;-63
2022/08/26 02:29:05;;;;;;;14.02;10.23;;;15.80;99.90;;;;;;4995940;28;20129;-63
2022/08/26 02:31:33;;;;;;;13.15;10.57;;;15.80;99.90;;;;;;4995888;28;20133;-63
2022/08/26 02:34:13;;;;;;;12.57;10.52;;;15.80;99.90;;;;;;5012681;28;20045;-63
2022/08/26 02:36:40;;;;;;;10.95;9.48;;;15.80;99.90;;;;;;4995509;28;20153;-63
2022/08/26 02:39:08;;;;;;;10.57;9.35;;;15.80;99.90;;;;;;4995621;28;20384;-63
2022/08/26 02:41:34;;;;;;;14.68;9.45;;;15.80;99.90;;;;;;5011438;28;20473;-64
2022/08/26 02:44:10;;;;;;;12.65;9.95;;;15.80;99.90;;;;;;5012381;28;20057;-64
2022/08/26 02:46:37;;;;;;;15.50;9.57;;;15.70;99.90;;;;;;4978908;28;20086;-63
2022/08/26 02:49:05;;;;;;;12.70;9.70;;;15.70;99.90;;;;;;5012527;28;20049;-63
2022/08/26 02:51:32;;;;;;;13.27;9.70;;;15.70;99.90;;;;;;5012424;28;20085;-63
2022/08/26 02:53:59;;;;;;;13.77;8.90;;;15.70;99.90;;;;;;4995017;28;20133;-63
2022/08/26 02:56:28;;;;;;;16.70;9.93;;;15.70;99.90;;;;;;5011851;28;20298;-63
2022/08/26 02:58:55;;;;;;;11.90;9.73;;;15.60;99.90;;;;;;4995284;28;20046;-63
2022/08/26 03:01:27;;;;;;;10.30;8.35;;;15.60;99.90;;;;;;4994690;28;20041;-64
2022/08/26 03:03:55;;;;;;;11.45;9.45;;;15.50;99.90;;;;;;5011403;28;20038;-64
2022/08/26 03:06:23;;;;;;;11.00;8.65;;;15.50;99.90;;;;;;5011929;28;20564;-63
2022/08/26 03:08:51;;;;;;;11.60;9.30;;;15.50;99.90;;;;;;5012373;28;20129;-63
2022/08/26 03:11:18;;;;;;;13.07;8.82;;;15.50;99.90;;;;;;5012204;28;20446;-64
2022/08/26 03:13:46;;;;;;;11.30;9.32;;;15.50;99.90;;;;;;5011702;28;20089;-63
2022/08/26 03:16:13;;;;;;;13.48;9.23;;;15.40;99.90;;;;;;4989120;28;20104;-64
2022/08/26 03:18:41;;;;;;;16.50;9.05;;;15.40;99.90;;;;;;5012370;28;20133;-64
2022/08/26 03:21:10;;;;;;;13.75;9.07;;;15.40;99.90;;;;;;5012064;28;20046;-63
2022/08/26 03:23:37;;;;;;;9.30;8.02;;;15.30;99.90;;;;;;5011666;28;20129;-62
2022/08/26 03:26:05;;;;;;;12.07;7.90;;;15.30;99.90;;;;;;4994309;28;20493;-64
2022/08/26 03:28:32;;;;;;;11.65;7.13;;;15.30;99.90;;;;;;4994538;28;20394;-64
2022/08/26 03:31:01;;;;;;;16.83;8.82;;;15.30;99.90;;;;;;4979304;28;20112;-63
2022/08/26 03:33:28;;;;;;;23.02;8.38;;;15.20;99.90;;;;;;5011610;28;20133;-64
2022/08/26 03:35:55;;;;;;;12.27;7.72;;;15.20;99.90;;;;;;5011661;28;20064;-64
2022/08/26 03:38:23;;;;;;;14.50;7.50;;;15.30;99.90;;;;;;4994280;28;20132;-64
2022/08/26 03:40:51;;;;;;;8.52;6.88;;;15.20;99.90;;;;;;4994641;28;20123;-64
2022/08/26 03:43:20;;;;;;;9.38;6.65;;;15.20;99.90;;;;;;5011031;28;20049;-64
2022/08/26 03:45:47;;;;;;;7.82;6.35;;;15.10;99.90;;;;;;5011588;28;20089;-64
2022/08/26 03:48:16;;;;;;;14.73;7.03;;;15.10;99.90;;;;;;5011674;28;20093;-64
2022/08/26 03:50:44;;;;;;;8.85;6.32;;;15.10;99.90;;;;;;5011827;28;20085;-64
2022/08/26 03:53:14;;;;;;;11.23;6.68;;;15.00;99.90;;;;;;5009996;28;20049;-64
2022/08/26 03:55:41;;;;;;;9.82;6.97;;;15.00;99.90;;;;;;4994095;28;20077;-63
2022/08/26 03:58:08;;;;;;;12.30;6.72;;;15.00;99.90;;;;;;5011263;28;20111;-64
2022/08/26 04:00:36;;;;;;;9.02;6.53;;;14.90;99.90;;;;;;5011502;28;20483;-64
2022/08/26 04:03:03;;;;;;;9.25;7.15;;;14.90;99.90;;;;;;4991777;28;20054;-63
2022/08/26 04:05:30;;;;;;;6.75;6.05;;;14.90;99.90;;;;;;5009900;28;20480;-64
2022/08/26 04:07:57;;;;;;;9.75;6.35;;;14.80;99.90;;;;;;4993676;28;20112;-64
2022/08/26 04:10:26;;;;;;;7.78;6.40;;;14.80;99.90;;;;;;5011392;28;20441;-64
2022/08/26 04:12:55;;;;;;;7.85;6.75;;;14.80;99.90;;;;;;5011031;28;20054;-64
2022/08/26 04:15:24;;;;;;;9.52;6.93;;;14.80;99.90;;;;;;4994101;28;20050;-64
2022/08/26 04:17:51;;;;;;;10.57;7.03;;;14.70;99.90;;;;;;5011420;28;20076;-64
2022/08/26 04:20:18;;;;;;;9.38;7.22;;;14.70;99.90;;;;;;4993958;28;20050;-64
2022/08/26 04:22:45;;;;;;;11.38;7.25;;;14.70;99.90;;;;;;5010939;28;20069;-64
2022/08/26 04:25:12;;;;;;;9.45;7.32;;;14.60;99.90;;;;;;4993991;28;20100;-62
2022/08/26 04:27:39;;;;;;;10.85;6.93;;;14.70;99.90;;;;;;5011006;28;20401;-64
2022/08/26 04:30:07;;;;;;;9.88;6.95;;;14.70;99.90;;;;;;5011432;28;20133;-63
2022/08/26 04:32:35;;;;;;;17.85;7.57;;;14.60;99.90;;;;;;5011901;28;20053;-62
2022/08/26 04:35:02;;;;;;;13.05;7.10;;;14.60;99.90;;;;;;5014003;28;20042;-63
2022/08/26 04:37:30;;;;;;;9.07;6.70;;;14.60;99.90;;;;;;5013456;28;20433;-63
2022/08/26 04:39:58;;;;;;;10.00;6.90;;;14.50;99.90;;;;;;5012847;28;20128;-63
2022/08/26 04:42:25;;;;;;;9.57;7.38;;;14.50;99.90;;;;;;5012611;28;20053;-63
2022/08/26 04:44:52;;;;;;;8.30;6.80;;;14.50;99.90;;;;;;5011486;28;20081;-64
2022/08/26 04:47:18;;;;;;;9.27;6.85;;;14.40;99.90;;;;;;4993666;28;20077;-63
2022/08/26 04:49:45;;;;;;;11.00;7.00;;;14.40;99.90;;;;;;5010647;28;20046;-63
2022/08/26 04:52:12;;;;;;;11.18;7.40;;;14.40;99.90;;;;;;4975947;28;20088;-63
2022/08/26 04:54:39;;;;;;;13.10;8.00;;;14.40;99.90;;;;;;5011314;28;20084;-65
2022/08/26 04:57:07;;;;;;;8.70;6.80;;;14.40;99.90;;;;;;4993657;28;20052;-64
2022/08/26 04:59:34;;;;;;;10.07;7.35;;;14.30;99.90;;;;;;5011024;28;20049;-63
2022/08/26 05:02:05;;;;;;;17.65;9.38;;;14.30;99.90;;;;;;5010500;28;20128;-63
2022/08/26 05:04:32;;;;;;;11.60;7.25;;;14.30;99.90;;;;;;4994870;28;20131;-63
2022/08/26 05:07:00;;;;;;;11.48;8.40;;;14.30;99.90;;;;;;5014058;28;20045;-63
2022/08/26 05:09:28;;;;;;;9.73;7.68;;;14.30;99.90;;;;;;5014483;28;20049;-63
2022/08/26 05:11:56;;;;;;;9.70;7.50;;;14.30;99.90;;;;;;5014077;28;20050;-62
2022/08/26 05:14:23;;;;;;;11.05;8.05;;;14.30;99.90;;;;;;5015022;28;20078;-63
2022/08/26 05:16:50;;;;;;;11.15;7.78;;;14.30;99.90;;;;;;4996565;28;20520;-64
2022/08/26 05:19:17;;;;;;;11.93;8.88;;;14.30;99.90;;;;;;4997090;28;20038;-64
2022/08/26 05:21:45;;;;;;;15.95;7.95;;;14.30;99.90;;;;;;4986998;28;20049;-64
2022/08/26 05:24:12;;;;;;;11.85;8.95;;;14.30;99.90;;;;;;4997073;28;20498;-63
2022/08/26 05:26:39;;;;;;;18.55;9.00;;;14.30;99.90;;;;;;4980342;28;20092;-64
2022/08/26 05:29:06;;;;;;;10.27;8.32;;;14.30;99.90;;;;;;5014218;28;20045;-63
2022/08/26 05:31:34;;;;;;;12.18;9.23;;;14.30;99.90;;;;;;5014026;28;20386;-63
2022/08/26 05:34:03;;;;;;;14.88;9.85;;;14.30;99.90;;;;;;5010566;28;20086;-63
2022/08/26 05:36:32;;;;;;;16.35;11.43;;;14.30;99.90;;;;;;5014282;28;20053;-63
2022/08/26 05:38:59;;;;;;;19.50;11.20;;;14.30;99.90;;;;;;4996803;28;20046;-63
2022/08/26 05:41:30;;;;;;;18.60;11.02;;;14.40;99.90;;;;;;4996539;28;20044;-63
2022/08/26 05:44:04;;;;;;;15.20;10.27;;;14.40;99.90;;;;;;4996201;28;20061;-63
2022/08/26 05:46:31;;;;;;;20.60;11.77;;;14.50;99.90;;;;;;5013806;28;20049;-64
2022/08/26 05:48:58;;;;;;;28.00;11.02;;;14.60;99.90;;;;;;5012714;28;20085;-63
2022/08/26 05:51:25;;;;;;;51.58;11.07;;;14.60;99.90;;;;;;4996210;28;20053;-63
2022/08/26 05:53:56;;;;;;;25.85;9.75;;;14.50;99.90;;;;;;5013508;28;20046;-64
2022/08/26 05:56:24;;;;;;;29.95;9.88;;;14.40;99.90;;;;;;5013384;28;20489;-63
2022/08/26 05:58:52;;;;;;;27.08;10.23;;;14.40;99.90;;;;;;4996069;28;20489;-63
2022/08/26 06:01:20;;;;;;;24.83;9.27;;;14.40;99.90;;;;;;5013931;28;20093;-63
2022/08/26 06:03:50;;;;;;;22.80;9.43;;;14.50;99.90;;;;;;5013349;28;20077;-64
2022/08/26 06:06:22;;;;;;;25.17;9.20;;;14.50;99.90;;;;;;4996365;28;20084;-64
2022/08/26 06:08:54;;;;;;;24.63;8.77;;;14.60;99.90;;;;;;4997204;28;20489;-63
2022/08/26 06:11:25;;;;;;;22.52;8.40;;;14.60;99.90;;;;;;5013540;28;20045;-63
2022/08/26 06:13:53;;;;;;;21.13;9.32;;;14.60;99.90;;;;;;4996321;28;20057;-63
2022/08/26 06:16:22;;;;;;;18.08;8.40;;;14.70;99.90;;;;;;5013753;28;20077;-63
2022/08/26 06:18:50;;;;;;;17.10;8.98;;;14.70;99.90;;;;;;4996390;28;20049;-65
2022/08/26 06:21:27;;;;;;;22.02;9.20;;;14.70;99.90;;;;;;5013521;28;20072;-63
2022/08/26 06:26:44;;;;;;;14.13;8.57;;;14.80;99.90;;;;;;5013316;28;20050;-64
2022/08/26 06:29:16;;;;;;;14.15;9.68;;;14.90;99.90;;;;;;4996452;28;20084;-64
2022/08/26 06:31:51;;;;;;;13.60;8.80;;;14.90;99.90;;;;;;5013246;28;20038;-64
2022/08/26 06:34:18;;;;;;;10.77;8.77;;;15.00;99.90;;;;;;4995279;28;20056;-63
2022/08/26 06:36:46;;;;;;;19.45;9.98;;;15.00;99.90;;;;;;4979805;28;20069;-63
2022/08/26 06:39:13;;;;;;;12.38;9.05;;;15.00;99.90;;;;;;4649119;28;10000300;-63
2022/08/26 06:41:43;;;;;;;14.80;9.13;;;15.10;99.90;;;;;;4997371;28;20050;-63
2022/08/26 06:44:12;;;;;;;12.52;10.40;;;15.10;99.90;;;;;;5009058;28;20474;-63
2022/08/26 06:46:40;;;;;;;12.88;10.00;;;15.10;99.90;;;;;;5009093;28;20481;-63
2022/08/26 06:49:10;;;;;;;12.60;8.95;;;15.10;99.90;;;;;;5007230;28;20429;-62
2022/08/26 06:51:37;;;;;;;13.65;8.63;;;15.20;99.90;;;;;;5000507;28;20557;-63
2022/08/26 06:54:04;;;;;;;9.32;8.35;;;15.20;99.90;;;;;;5008935;28;20136;-63
2022/08/26 06:56:37;;;;;;;11.25;9.35;;;15.30;99.90;;;;;;5006225;28;20053;-65
2022/08/26 06:59:04;;;;;;;11.38;8.77;;;15.30;99.90;;;;;;5000989;28;20528;-63
2022/08/26 07:01:35;;;;;;;11.25;8.80;;;15.40;99.90;;;;;;4979617;28;20437;-63
2022/08/26 07:04:05;;;;;;;13.93;9.55;;;15.40;99.90;;;;;;4999763;28;20383;-63
2022/08/26 07:06:39;;;;;;;15.02;9.85;;;15.40;99.90;;;;;;5009181;28;20054;-63
2022/08/26 07:09:07;;;;;;;10.68;8.85;;;15.50;99.90;;;;;;4978980;28;20045;-60
2022/08/26 07:11:36;;;;;;;10.07;7.95;;;15.50;99.90;;;;;;4991738;28;20053;-62
2022/08/26 07:14:04;;;;;;;12.02;8.20;;;15.60;99.90;;;;;;5002883;28;20060;-63
2022/08/26 07:16:32;;;;;;;11.20;8.50;;;15.70;99.90;;;;;;5008023;28;20615;-64
2022/08/26 07:18:58;;;;;;;10.73;8.10;;;15.70;99.90;;;;;;4975298;28;20048;-63
2022/08/26 07:21:29;;;;;;;12.88;8.95;;;15.80;99.90;;;;;;4960329;28;20132;-65
2022/08/26 07:23:55;;;;;;;16.60;9.70;;;15.70;99.90;;;;;;5007691;28;20085;-64
2022/08/26 07:26:28;;;;;;;10.38;9.30;;;15.80;99.90;;;;;;5007717;28;20043;-64
2022/08/26 07:28:55;;;;;;;17.60;10.80;;;15.90;99.90;;;;;;5007233;28;20050;-64
2022/08/26 07:31:24;;;;;;;15.13;11.30;;;15.90;99.90;;;;;;4991025;28;20129;-64
2022/08/26 07:33:51;;;;;;;15.60;11.45;;;15.90;99.90;;;;;;4990817;28;20068;-64
2022/08/26 07:36:19;;;;;;;18.13;12.50;;;15.90;99.90;;;;;;5008045;28;20050;-64
2022/08/26 07:38:46;;;;;;;16.25;11.70;;;16.00;99.90;;;;;;5007484;28;20096;-64
2022/08/26 07:41:14;;;;;;;14.95;10.90;;;16.00;99.90;;;;;;5007996;28;20069;-63
2022/08/26 07:43:42;;;;;;;19.83;12.90;;;16.20;99.90;;;;;;5007853;28;20413;-63
2022/08/26 07:46:09;;;;;;;12.68;10.68;;;16.20;99.90;;;;;;4954688;28;20081;-63
2022/08/26 07:48:42;;;;;;;20.63;12.00;;;16.40;99.90;;;;;;5007904;28;20049;-63
2022/08/26 07:51:13;;;;;;;16.02;12.15;;;16.50;99.90;;;;;;5007078;28;20060;-63
2022/08/26 07:53:41;;;;;;;16.85;11.73;;;16.50;99.90;;;;;;4989149;28;20421;-62
2022/08/26 07:56:08;;;;;;;17.63;12.32;;;16.60;99.90;;;;;;4984954;28;20046;-62
2022/08/26 07:58:37;;;;;;;20.10;12.07;;;16.70;99.90;;;;;;4990058;28;20046;-63
2022/08/26 08:01:04;;;;;;;20.50;12.05;;;16.70;99.90;;;;;;5007042;28;20096;-62
2022/08/26 08:03:33;;;;;;;18.42;12.43;;;16.70;99.90;;;;;;4990429;28;20052;-64
2022/08/26 08:05:59;;;;;;;16.70;11.52;;;16.80;99.90;;;;;;5007992;28;20046;-64
2022/08/26 08:08:26;;;;;;;17.55;10.90;;;16.90;99.90;;;;;;5007931;28;20108;-64
2022/08/26 08:10:55;;;;;;;16.65;11.02;;;17.00;99.90;;;;;;4990817;28;20124;-64
2022/08/26 08:13:22;;;;;;;15.23;10.23;;;17.00;99.90;;;;;;5008875;28;20108;-64
2022/08/26 08:15:49;;;;;;;21.75;10.23;;;17.00;99.90;;;;;;5011352;28;20045;-64
2022/08/26 08:18:17;;;;;;;23.75;11.55;;;17.00;99.90;;;;;;4992960;28;20117;-63
2022/08/26 08:20:46;;;;;;;18.10;11.27;;;17.10;99.90;;;;;;5007554;28;20046;-62
2022/08/26 08:23:30;;;;;;;17.30;10.60;;;17.10;99.90;;;;;;4977199;28;20103;-63
2022/08/26 08:26:05;;;;;;;15.65;10.68;;;17.20;99.90;;;;;;5005430;28;20042;-63
2022/08/26 08:28:34;;;;;;;15.85;9.75;;;17.30;99.90;;;;;;4989049;28;20057;-66
2022/08/26 08:31:02;;;;;;;16.08;10.10;;;17.30;99.90;;;;;;4989274;28;20061;-65
2022/08/26 08:33:29;;;;;;;15.02;10.00;;;17.40;99.90;;;;;;5007900;28;20049;-64
2022/08/26 08:35:57;;;;;;;14.30;9.13;;;17.40;99.90;;;;;;4973925;28;20104;-64
2022/08/26 08:38:25;;;;;;;11.95;7.03;;;17.50;99.90;;;;;;4973907;28;20088;-65
2022/08/26 08:40:52;;;;;;;15.85;8.32;;;17.60;99.90;;;;;;4992739;28;20057;-65
2022/08/26 08:43:39;;;;;;;11.68;5.82;;;17.70;99.90;;;;;;4993827;28;20137;-65
2022/08/26 08:46:09;;;;;;;12.38;5.00;;;17.70;99.90;;;;;;4969726;28;20049;-63
2022/08/26 08:48:37;;;;;;;13.10;5.20;;;17.70;99.90;;;;;;4978366;28;20414;-64
2022/08/26 08:51:26;;;;;;;10.52;5.10;;;17.90;99.90;;;;;;4994239;28;20488;-65
2022/08/26 08:53:54;;;;;;;16.13;4.15;;;18.00;99.90;;;;;;5002108;28;20054;-64
2022/08/26 08:56:43;;;;;;;13.00;4.93;;;18.20;99.90;;;;;;5011489;28;20050;-65
2022/08/26 08:59:22;;;;;;;17.60;4.63;;;18.20;99.90;;;;;;4986606;28;20089;-65
2022/08/26 09:02:22;;;;;;;8.27;3.55;;;18.30;99.90;;;;;;4993627;28;20053;-66
2022/08/26 09:05:18;;;;;;;17.02;4.18;;;18.40;99.90;;;;;;5010847;28;20042;-65
2022/08/26 09:08:03;;;;;;;11.55;4.03;;;18.50;99.90;;;;;;5000205;28;20537;-63
2022/08/26 09:10:36;;;;;;;8.82;3.00;;;18.60;99.90;;;;;;4978611;28;20054;-66
2022/08/26 09:13:09;;;;;;;7.15;2.53;;;18.60;99.90;;;;;;4974400;28;20137;-64
2022/08/26 09:15:49;;;;;;;13.40;2.63;;;18.70;99.90;;;;;;4982839;28;20065;-65
2022/08/26 09:18:47;;;;;;;9.70;2.60;;;18.80;99.90;;;;;;5008711;28;20100;-64
2022/08/26 09:21:17;;;;;;;15.82;3.25;;;18.90;99.90;;;;;;5012996;28;20054;-67
2022/08/26 09:23:44;;;;;;;13.15;2.63;;;18.90;99.90;;;;;;5013983;28;20053;-64
2022/08/26 09:26:18;;;;;;;5.65;2.38;;;19.00;99.90;;;;;;5012896;28;20046;-64
2022/08/26 09:29:03;;;;;;;12.45;2.63;;;19.10;99.90;;;;;;4997003;28;20469;-64
2022/08/26 09:31:32;;;;;;;21.45;3.70;;;19.10;99.90;;;;;;4976612;28;20041;-64
2022/08/26 09:34:05;;;;;;;11.48;3.45;;;19.20;99.90;;;;;;4997158;28;20058;-64
2022/08/26 09:36:56;;;;;;;12.75;3.25;;;19.30;99.90;;;;;;5013624;28;20092;-64
2022/08/26 09:39:26;;;;;;;12.10;3.40;;;19.60;99.90;;;;;;5005435;28;20057;-63
2022/08/26 09:42:10;;;;;;;7.22;2.88;;;20.10;99.90;;;;;;5013430;28;20042;-65
2022/08/26 09:44:58;;;;;;;10.55;2.97;;;20.40;99.90;;;;;;5013832;28;20053;-63
2022/08/26 09:47:36;;;;;;;10.55;2.80;;;20.80;99.90;;;;;;5005235;28;20061;-64
2022/08/26 09:50:08;;;;;;;5.25;2.67;;;21.10;99.90;;;;;;5002741;28;20050;-63
2022/08/26 09:52:38;;;;;;;6.15;2.85;;;21.30;99.90;;;;;;4986868;28;20050;-64
2022/08/26 09:55:08;;;;;;;7.97;2.78;;;21.60;99.90;;;;;;5007242;28;20097;-63
2022/08/26 09:57:49;;;;;;;5.60;2.50;;;21.80;99.90;;;;;;5011534;28;20108;-65
2022/08/26 10:00:25;;;;;;;11.15;2.15;;;22.10;99.90;;;;;;5010033;28;20143;-63
2022/08/26 10:02:52;;;;;;;15.88;3.45;;;22.30;99.90;;;;;;5015187;28;20042;-65
2022/08/26 10:05:30;;;;;;;8.82;3.40;;;22.30;98.00;;;;;;4961956;28;20050;-63
2022/08/26 10:07:59;;;;;;;7.63;2.80;;;22.20;94.70;;;;;;5009609;28;20046;-65
2022/08/26 10:10:38;;;;;;;13.55;3.15;;;22.30;99.30;;;;;;4973051;28;20389;-64
2022/08/26 10:13:10;;;;;;;7.82;2.25;;;22.50;94.30;;;;;;4997394;28;20050;-63
2022/08/26 10:16:00;;;;;;;14.30;2.72;;;22.80;99.80;;;;;;4997670;28;20116;-63
2022/08/26 10:18:42;;;;;;;4.10;1.92;;;23.00;93.10;;;;;;4996521;28;20081;-64
2022/08/26 10:21:14;;;;;;;22.85;3.03;;;23.10;94.30;;;;;;4965419;28;20042;-63
2022/08/26 10:23:49;;;;;;;11.88;2.88;;;22.80;97.20;;;;;;4977495;28;20045;-63
2022/08/26 10:26:47;;;;;;;15.63;2.33;;;22.50;95.20;;;;;;4992830;28;20069;-65
2022/08/26 10:29:18;;;;;;;7.43;2.10;;;22.20;94.60;;;;;;4995077;28;20064;-64
2022/08/26 10:31:55;;;;;;;20.33;2.78;;;22.10;96.40;;;;;;5007952;28;20077;-63
2022/08/26 10:34:30;;;;;;;;;;;22.00;93.30;;;;;;5010283;28;20452;-64
2022/08/26 10:37:00;;;;;;;10.45;2.00;;;21.80;91.90;;;;;;4992227;28;19931;-63
2022/08/26 10:39:55;;;;;;;16.48;2.83;;;21.70;97.00;;;;;;4988842;28;20050;-63
2022/08/26 10:42:40;;;;;;;10.98;2.63;;;21.60;96.90;;;;;;5006401;28;20048;-62
2022/08/26 10:45:13;;;;;;;8.23;2.60;;;21.40;94.20;;;;;;4995625;28;20042;-63
2022/08/26 10:47:56;;;;;;;11.45;2.60;;;21.30;96.30;;;;;;4972623;28;20046;-63
2022/08/26 10:50:32;;;;;;;8.93;3.38;;;21.30;94.30;;;;;;4999371;28;20111;-63
2022/08/26 10:53:24;;;;;;;9.65;3.45;;;21.10;94.40;;;;;;4987357;28;20046;-63
2022/08/26 10:55:54;;;;;;;5.22;2.38;;;21.00;94.60;;;;;;4997465;28;20054;-64
2022/08/26 10:58:44;;;;;;;10.00;3.55;;;21.00;97.60;;;;;;4985649;28;20052;-63
2022/08/26 11:01:42;;;;;;;7.18;3.05;;;21.00;93.90;;;;;;5001373;28;20046;-64
2022/08/26 11:04:31;;;;;;;4.82;2.22;;;21.10;94.90;;;;;;4982592;28;20073;-64
2022/08/26 11:07:31;;;;;;;6.78;2.40;;;21.10;92.20;;;;;;5003673;28;20058;-64
2022/08/26 11:10:00;;;;;;;5.03;2.58;;;21.10;92.30;;;;;;5003362;28;20077;-64
2022/08/26 11:12:36;;;;;;;6.15;2.13;;;21.10;94.70;;;;;;4990093;28;20405;-63
2022/08/26 11:15:05;;;;;;;6.68;2.13;;;21.20;93.90;;;;;;4983733;28;20089;-63
2022/08/26 11:17:44;;;;;;;7.60;2.47;;;21.10;95.80;;;;;;5005400;28;20057;-63
2022/08/26 11:20:26;;;;;;;9.70;1.60;;;21.20;93.70;;;;;;4982392;28;20065;-64
2022/08/26 11:22:54;;;;;;;7.32;2.30;;;21.30;94.60;;;;;;5003773;28;20050;-64
2022/08/26 11:25:25;;;;;;;7.32;2.13;;;21.40;96.20;;;;;;4981556;28;20046;-64
2022/08/26 11:27:59;;;;;;;8.45;2.60;;;21.40;96.20;;;;;;5008816;28;20084;-64
2022/08/26 11:30:36;;;;;;;11.70;2.60;;;21.40;95.90;;;;;;5008509;28;20508;-64
2022/08/26 11:33:06;;;;;;;6.70;2.45;;;21.50;94.00;;;;;;5009804;28;20049;-64
2022/08/26 11:35:34;;;;;;;9.07;2.50;;;21.50;94.10;;;;;;4990506;28;20112;-63
2022/08/26 11:38:12;;;;;;;15.13;2.88;;;21.40;93.10;;;;;;5003216;28;20068;-63
2022/08/26 11:40:40;;;;;;;9.30;2.90;;;21.30;94.10;;;;;;4960587;28;20052;-63
2022/08/26 11:43:17;;;;;;;15.77;2.80;;;21.40;93.30;;;;;;4999166;28;20046;-63
2022/08/26 11:46:09;;;;;;;12.35;3.33;;;21.40;92.70;;;;;;4974789;28;20065;-63
2022/08/26 11:48:38;;;;;;;22.25;2.75;;;21.40;90.60;;;;;;4983320;28;20057;-63
2022/08/26 11:51:09;;;;;;;6.75;2.60;;;21.50;93.10;;;;;;4986479;28;20119;-64
2022/08/26 11:53:38;;;;;;;5.13;1.95;;;21.60;92.10;;;;;;4986224;28;20120;-64
2022/08/26 11:56:08;;;;;;;12.73;2.78;;;21.70;92.10;;;;;;4998494;28;20116;-63
2022/08/26 11:58:35;;;;;;;5.60;1.95;;;21.90;91.90;;;;;;4997633;28;20101;-64
2022/08/26 12:01:05;;;;;;;5.70;2.42;;;22.00;92.20;;;;;;4982635;28;20077;-64
2022/08/26 12:03:55;;;;;;;7.38;2.38;;;22.10;91.70;;;;;;5002283;28;20045;-63
2022/08/26 12:06:36;;;;;;;8.77;2.25;;;22.20;92.00;;;;;;4977317;28;20054;-63
2022/08/26 12:09:14;;;;;;;6.50;2.20;;;22.10;89.80;;;;;;4974588;28;20422;-63
2022/08/26 12:11:40;;;;;;;15.57;2.97;;;22.10;91.30;;;;;;4991295;28;20053;-64
2022/08/26 12:14:20;;;;;;;11.77;2.60;;;22.00;91.60;;;;;;4992287;28;20066;-64
2022/08/26 12:16:47;;;;;;;6.32;1.67;;;22.00;90.00;;;;;;5006432;28;20497;-64
2022/08/26 12:19:31;;;;;;;9.75;2.42;;;22.00;91.20;;;;;;5012991;28;20046;-64
2022/08/26 12:22:17;;;;;;;10.73;2.70;;;21.90;83.70;;;;;;5012223;28;20062;-64
2022/08/26 12:25:13;;;;;;;6.63;2.53;;;21.90;89.50;;;;;;4992177;28;20045;-63
2022/08/26 12:27:41;;;;;;;6.50;2.43;;;22.00;82.80;;;;;;5010010;28;20046;-64
2022/08/26 12:30:10;;;;;;;9.80;2.45;;;22.20;87.70;;;;;;4995285;28;20128;-63
2022/08/26 12:32:40;;;;;;;5.95;1.77;;;22.30;87.30;;;;;;5012845;28;20077;-64
2022/08/26 12:35:23;;;;;;;4.30;2.28;;;22.40;87.30;;;;;;4997001;28;20050;-64
2022/08/26 12:37:51;;;;;;;12.15;2.25;;;22.50;87.30;;;;;;4974374;28;20054;-64
2022/08/26 12:40:27;;;;;;;8.63;3.03;;;22.70;83.10;;;;;;4983815;28;20134;-64
2022/08/26 12:42:55;;;;;;;6.47;2.20;;;22.70;74.80;;;;;;4993022;28;20168;-64
2022/08/26 12:45:30;;;;;;;6.53;2.20;;;22.80;80.10;;;;;;5003695;28;20052;-64
2022/08/26 12:47:59;;;;;;;10.35;2.50;;;22.90;73.00;;;;;;4974952;28;20072;-64
2022/08/26 12:50:31;;;;;;;6.63;1.85;;;22.90;76.10;;;;;;4994046;28;20539;-63
2022/08/26 12:53:09;;;;;;;10.57;1.83;;;22.90;72.30;;;;;;5007859;28;20045;-63
2022/08/26 12:55:36;;;;;;;7.00;1.98;;;23.00;77.30;;;;;;5000358;28;20120;-63
2022/08/26 12:58:15;;;;;;;5.88;2.75;;;23.20;80.30;;;;;;5005348;28;20578;-64
2022/08/26 13:00:44;;;;;;;9.35;2.50;;;23.50;76.60;;;;;;5004290;28;20563;-64
2022/08/26 13:03:28;;;;;;;12.25;2.60;;;23.70;79.20;;;;;;5001950;28;20081;-64